sensor_id;sensor_type;location;lat;lon;timestamp;P1;durP1;ratioP1;P2;durP2;ratioP2
21352;SDS011;10834;52.268;6.770;2023-03-26T00:00:40;26.37;;;5.73;;
21352;SDS011;10834;52.268;6.770;2023-03-26T00:03:28;20.87;;;5.17;;
21352;SDS011;10834;52.268;6.770;2023-03-26T00:06:15;22.23;;;5.57;;
21352;SDS011;10834;52.268;6.770;2023-03-26T00:09:02;14.27;;;4.80;;
21352;SDS011;10834;52.268;6.770;2023-03-26T00:11:49;18.53;;;4.87;;
21352;SDS011;10834;52.268;6.770;2023-03-26T00:14:36;14.47;;;4.83;;
21352;SDS011;10834;52.268;6.770;2023-03-26T00:17:25;22.60;;;4.77;;
21352;SDS011;10834;52.268;6.770;2023-03-26T00:20:11;14.00;;;5.27;;
21352;SDS011;10834;52.268;6.770;2023-03-26T00:22:57;16.00;;;5.27;;
21352;SDS011;10834;52.268;6.770;2023-03-26T00:25:46;12.37;;;5.20;;
21352;SDS011;10834;52.268;6.770;2023-03-26T00:28:36;12.57;;;4.43;;
21352;SDS011;10834;52.268;6.770;2023-03-26T00:31:24;21.30;;;5.67;;
21352;SDS011;10834;52.268;6.770;2023-03-26T00:34:11;10.60;;;4.87;;
21352;SDS011;10834;52.268;6.770;2023-03-26T00:36:59;15.70;;;5.33;;
21352;SDS011;10834;52.268;6.770;2023-03-26T00:39:47;18.07;;;5.40;;
21352;SDS011;10834;52.268;6.770;2023-03-26T00:42:33;13.23;;;4.93;;
21352;SDS011;10834;52.268;6.770;2023-03-26T00:45:19;12.67;;;4.80;;
21352;SDS011;10834;52.268;6.770;2023-03-26T00:48:06;23.47;;;5.87;;
21352;SDS011;10834;52.268;6.770;2023-03-26T00:50:52;15.60;;;5.00;;
21352;SDS011;10834;52.268;6.770;2023-03-26T00:53:38;19.03;;;6.70;;
21352;SDS011;10834;52.268;6.770;2023-03-26T00:56:25;17.13;;;6.07;;
21352;SDS011;10834;52.268;6.770;2023-03-26T00:59:11;12.50;;;5.73;;
21352;SDS011;10834;52.268;6.770;2023-03-26T01:01:57;11.70;;;4.83;;
21352;SDS011;10834;52.268;6.770;2023-03-26T01:04:45;21.23;;;6.57;;
21352;SDS011;10834;52.268;6.770;2023-03-26T01:07:39;15.50;;;5.33;;
21352;SDS011;10834;52.268;6.770;2023-03-26T01:10:27;15.27;;;5.60;;
21352;SDS011;10834;52.268;6.770;2023-03-26T01:13:14;20.03;;;5.60;;
21352;SDS011;10834;52.268;6.770;2023-03-26T01:16:05;20.23;;;5.80;;
21352;SDS011;10834;52.268;6.770;2023-03-26T01:19:08;14.33;;;5.40;;
21352;SDS011;10834;52.268;6.770;2023-03-26T01:22:00;15.57;;;6.57;;
21352;SDS011;10834;52.268;6.770;2023-03-26T01:24:47;23.37;;;5.90;;
21352;SDS011;10834;52.268;6.770;2023-03-26T01:27:41;16.27;;;5.90;;
21352;SDS011;10834;52.268;6.770;2023-03-26T01:33:28;11.03;;;5.00;;
21352;SDS011;10834;52.268;6.770;2023-03-26T01:36:30;16.87;;;5.77;;
21352;SDS011;10834;52.268;6.770;2023-03-26T01:39:22;16.77;;;6.33;;
21352;SDS011;10834;52.268;6.770;2023-03-26T01:42:40;20.53;;;6.13;;
21352;SDS011;10834;52.268;6.770;2023-03-26T01:45:37;15.97;;;6.23;;
21352;SDS011;10834;52.268;6.770;2023-03-26T01:51:41;28.60;;;7.53;;
21352;SDS011;10834;52.268;6.770;2023-03-26T01:54:28;19.87;;;7.40;;
21352;SDS011;10834;52.268;6.770;2023-03-26T02:03:22;27.53;;;6.57;;
21352;SDS011;10834;52.268;6.770;2023-03-26T02:06:20;18.37;;;7.33;;
21352;SDS011;10834;52.268;6.770;2023-03-26T02:09:11;17.43;;;6.83;;
21352;SDS011;10834;52.268;6.770;2023-03-26T02:12:01;20.00;;;7.53;;
21352;SDS011;10834;52.268;6.770;2023-03-26T02:14:48;23.50;;;7.70;;
21352;SDS011;10834;52.268;6.770;2023-03-26T02:17:35;23.70;;;7.10;;
21352;SDS011;10834;52.268;6.770;2023-03-26T02:20:24;19.23;;;7.20;;
21352;SDS011;10834;52.268;6.770;2023-03-26T02:23:14;25.80;;;7.53;;
21352;SDS011;10834;52.268;6.770;2023-03-26T02:26:09;16.80;;;8.00;;
21352;SDS011;10834;52.268;6.770;2023-03-26T02:28:56;19.90;;;7.93;;
21352;SDS011;10834;52.268;6.770;2023-03-26T02:31:42;18.00;;;7.73;;
21352;SDS011;10834;52.268;6.770;2023-03-26T02:34:29;22.43;;;7.43;;
21352;SDS011;10834;52.268;6.770;2023-03-26T02:37:15;25.50;;;9.27;;
21352;SDS011;10834;52.268;6.770;2023-03-26T02:40:03;16.20;;;7.60;;
21352;SDS011;10834;52.268;6.770;2023-03-26T02:42:55;17.67;;;6.80;;
21352;SDS011;10834;52.268;6.770;2023-03-26T02:45:41;26.20;;;8.37;;
21352;SDS011;10834;52.268;6.770;2023-03-26T02:48:27;23.03;;;8.70;;
21352;SDS011;10834;52.268;6.770;2023-03-26T02:51:13;20.37;;;7.30;;
21352;SDS011;10834;52.268;6.770;2023-03-26T02:54:03;28.13;;;7.97;;
21352;SDS011;10834;52.268;6.770;2023-03-26T02:56:49;26.47;;;8.07;;
21352;SDS011;10834;52.268;6.770;2023-03-26T02:59:35;21.67;;;8.40;;
21352;SDS011;10834;52.268;6.770;2023-03-26T03:02:21;24.77;;;7.40;;
21352;SDS011;10834;52.268;6.770;2023-03-26T03:05:09;22.10;;;9.07;;
21352;SDS011;10834;52.268;6.770;2023-03-26T03:07:55;23.37;;;8.63;;
21352;SDS011;10834;52.268;6.770;2023-03-26T03:10:42;24.53;;;8.27;;
21352;SDS011;10834;52.268;6.770;2023-03-26T03:13:28;22.73;;;7.03;;
21352;SDS011;10834;52.268;6.770;2023-03-26T03:16:14;23.70;;;7.60;;
21352;SDS011;10834;52.268;6.770;2023-03-26T03:19:01;20.67;;;7.03;;
21352;SDS011;10834;52.268;6.770;2023-03-26T03:21:47;19.33;;;7.27;;
21352;SDS011;10834;52.268;6.770;2023-03-26T03:24:33;21.67;;;7.17;;
21352;SDS011;10834;52.268;6.770;2023-03-26T03:27:19;16.53;;;7.13;;
21352;SDS011;10834;52.268;6.770;2023-03-26T03:30:07;24.23;;;7.07;;
21352;SDS011;10834;52.268;6.770;2023-03-26T03:32:55;24.00;;;8.03;;
21352;SDS011;10834;52.268;6.770;2023-03-26T03:35:42;18.27;;;7.47;;
21352;SDS011;10834;52.268;6.770;2023-03-26T03:38:30;21.87;;;7.70;;
21352;SDS011;10834;52.268;6.770;2023-03-26T03:41:16;18.70;;;7.77;;
21352;SDS011;10834;52.268;6.770;2023-03-26T03:44:03;20.40;;;6.90;;
21352;SDS011;10834;52.268;6.770;2023-03-26T03:46:49;23.13;;;7.57;;
21352;SDS011;10834;52.268;6.770;2023-03-26T03:49:38;23.97;;;8.13;;
21352;SDS011;10834;52.268;6.770;2023-03-26T03:52:25;20.67;;;6.90;;
21352;SDS011;10834;52.268;6.770;2023-03-26T03:55:12;21.33;;;6.80;;
21352;SDS011;10834;52.268;6.770;2023-03-26T03:57:59;17.47;;;6.73;;
21352;SDS011;10834;52.268;6.770;2023-03-26T04:00:45;18.40;;;8.83;;
21352;SDS011;10834;52.268;6.770;2023-03-26T04:03:33;24.90;;;6.93;;
21352;SDS011;10834;52.268;6.770;2023-03-26T04:06:26;22.13;;;7.03;;
21352;SDS011;10834;52.268;6.770;2023-03-26T04:09:14;18.50;;;7.30;;
21352;SDS011;10834;52.268;6.770;2023-03-26T04:12:00;19.63;;;7.27;;
21352;SDS011;10834;52.268;6.770;2023-03-26T04:14:46;19.17;;;9.23;;
21352;SDS011;10834;52.268;6.770;2023-03-26T04:17:33;21.07;;;6.87;;
21352;SDS011;10834;52.268;6.770;2023-03-26T04:20:27;23.60;;;6.90;;
21352;SDS011;10834;52.268;6.770;2023-03-26T04:23:13;20.80;;;7.30;;
21352;SDS011;10834;52.268;6.770;2023-03-26T04:26:01;21.87;;;6.80;;
21352;SDS011;10834;52.268;6.770;2023-03-26T04:28:57;15.10;;;6.60;;
21352;SDS011;10834;52.268;6.770;2023-03-26T04:31:53;18.30;;;6.70;;
21352;SDS011;10834;52.268;6.770;2023-03-26T04:34:51;22.77;;;7.53;;
21352;SDS011;10834;52.268;6.770;2023-03-26T04:37:38;20.97;;;7.20;;
21352;SDS011;10834;52.268;6.770;2023-03-26T04:40:25;25.80;;;7.53;;
21352;SDS011;10834;52.268;6.770;2023-03-26T04:43:15;28.50;;;8.73;;
21352;SDS011;10834;52.268;6.770;2023-03-26T04:46:02;23.77;;;7.67;;
21352;SDS011;10834;52.268;6.770;2023-03-26T04:48:49;20.50;;;7.53;;
21352;SDS011;10834;52.268;6.770;2023-03-26T04:51:37;23.33;;;8.10;;
21352;SDS011;10834;52.268;6.770;2023-03-26T04:54:26;26.87;;;7.33;;
21352;SDS011;10834;52.268;6.770;2023-03-26T04:57:14;25.47;;;8.33;;
21352;SDS011;10834;52.268;6.770;2023-03-26T05:00:03;24.63;;;8.27;;
21352;SDS011;10834;52.268;6.770;2023-03-26T05:02:59;24.77;;;7.93;;
21352;SDS011;10834;52.268;6.770;2023-03-26T05:05:46;24.37;;;7.67;;
21352;SDS011;10834;52.268;6.770;2023-03-26T05:08:34;19.27;;;6.50;;
21352;SDS011;10834;52.268;6.770;2023-03-26T05:11:19;25.90;;;7.80;;
21352;SDS011;10834;52.268;6.770;2023-03-26T05:14:06;21.00;;;7.80;;
21352;SDS011;10834;52.268;6.770;2023-03-26T05:16:53;33.27;;;8.97;;
21352;SDS011;10834;52.268;6.770;2023-03-26T05:19:39;22.47;;;8.47;;
21352;SDS011;10834;52.268;6.770;2023-03-26T05:22:26;27.33;;;10.80;;
21352;SDS011;10834;52.268;6.770;2023-03-26T05:25:12;22.33;;;7.87;;
21352;SDS011;10834;52.268;6.770;2023-03-26T05:27:58;26.73;;;8.70;;
21352;SDS011;10834;52.268;6.770;2023-03-26T05:30:44;30.93;;;7.73;;
21352;SDS011;10834;52.268;6.770;2023-03-26T05:33:30;26.07;;;8.43;;
21352;SDS011;10834;52.268;6.770;2023-03-26T05:36:16;18.37;;;7.37;;
21352;SDS011;10834;52.268;6.770;2023-03-26T05:39:03;20.90;;;8.50;;
21352;SDS011;10834;52.268;6.770;2023-03-26T05:41:49;29.43;;;8.10;;
21352;SDS011;10834;52.268;6.770;2023-03-26T05:44:37;26.23;;;8.07;;
21352;SDS011;10834;52.268;6.770;2023-03-26T05:47:23;24.87;;;8.20;;
21352;SDS011;10834;52.268;6.770;2023-03-26T05:50:10;24.90;;;9.07;;
21352;SDS011;10834;52.268;6.770;2023-03-26T05:52:56;26.93;;;8.80;;
21352;SDS011;10834;52.268;6.770;2023-03-26T05:55:48;23.33;;;8.67;;
21352;SDS011;10834;52.268;6.770;2023-03-26T05:58:35;24.80;;;8.10;;
21352;SDS011;10834;52.268;6.770;2023-03-26T06:01:22;27.83;;;8.30;;
21352;SDS011;10834;52.268;6.770;2023-03-26T06:04:13;25.20;;;8.43;;
21352;SDS011;10834;52.268;6.770;2023-03-26T06:07:02;31.20;;;10.50;;
21352;SDS011;10834;52.268;6.770;2023-03-26T06:09:48;26.03;;;9.37;;
21352;SDS011;10834;52.268;6.770;2023-03-26T06:12:34;26.80;;;10.20;;
21352;SDS011;10834;52.268;6.770;2023-03-26T06:15:21;31.03;;;11.17;;
21352;SDS011;10834;52.268;6.770;2023-03-26T06:18:07;35.33;;;12.63;;
21352;SDS011;10834;52.268;6.770;2023-03-26T06:20:53;24.63;;;10.33;;
21352;SDS011;10834;52.268;6.770;2023-03-26T06:23:40;31.40;;;9.80;;
21352;SDS011;10834;52.268;6.770;2023-03-26T06:26:26;29.73;;;9.77;;
21352;SDS011;10834;52.268;6.770;2023-03-26T06:29:12;29.63;;;10.83;;
21352;SDS011;10834;52.268;6.770;2023-03-26T06:31:59;28.00;;;10.13;;
21352;SDS011;10834;52.268;6.770;2023-03-26T06:34:45;31.47;;;9.27;;
21352;SDS011;10834;52.268;6.770;2023-03-26T06:37:31;38.60;;;11.37;;
21352;SDS011;10834;52.268;6.770;2023-03-26T06:40:17;27.60;;;9.30;;
21352;SDS011;10834;52.268;6.770;2023-03-26T06:43:04;25.30;;;9.33;;
21352;SDS011;10834;52.268;6.770;2023-03-26T06:45:50;30.03;;;11.33;;
21352;SDS011;10834;52.268;6.770;2023-03-26T06:48:37;30.37;;;10.57;;
21352;SDS011;10834;52.268;6.770;2023-03-26T06:51:23;33.70;;;10.23;;
21352;SDS011;10834;52.268;6.770;2023-03-26T06:54:10;29.57;;;10.10;;
21352;SDS011;10834;52.268;6.770;2023-03-26T06:56:56;24.70;;;9.13;;
21352;SDS011;10834;52.268;6.770;2023-03-26T06:59:43;28.60;;;9.70;;
21352;SDS011;10834;52.268;6.770;2023-03-26T07:02:29;24.70;;;9.67;;
21352;SDS011;10834;52.268;6.770;2023-03-26T07:05:15;34.87;;;10.07;;
21352;SDS011;10834;52.268;6.770;2023-03-26T07:08:02;25.77;;;9.30;;
21352;SDS011;10834;52.268;6.770;2023-03-26T07:10:48;36.50;;;10.63;;
21352;SDS011;10834;52.268;6.770;2023-03-26T07:13:34;26.00;;;9.83;;
21352;SDS011;10834;52.268;6.770;2023-03-26T07:16:21;28.73;;;10.33;;
21352;SDS011;10834;52.268;6.770;2023-03-26T07:19:07;28.03;;;10.37;;
21352;SDS011;10834;52.268;6.770;2023-03-26T07:21:53;25.73;;;9.83;;
21352;SDS011;10834;52.268;6.770;2023-03-26T07:24:39;33.43;;;10.97;;
21352;SDS011;10834;52.268;6.770;2023-03-26T07:30:44;22.30;;;11.27;;
21352;SDS011;10834;52.268;6.770;2023-03-26T07:33:49;29.07;;;11.63;;
21352;SDS011;10834;52.268;6.770;2023-03-26T07:36:57;35.00;;;11.77;;
21352;SDS011;10834;52.268;6.770;2023-03-26T07:43:14;20.43;;;10.67;;
21352;SDS011;10834;52.268;6.770;2023-03-26T07:46:09;22.97;;;9.40;;
21352;SDS011;10834;52.268;6.770;2023-03-26T07:48:57;18.57;;;9.10;;
21352;SDS011;10834;52.268;6.770;2023-03-26T07:51:47;19.30;;;8.87;;
21352;SDS011;10834;52.268;6.770;2023-03-26T07:54:33;25.80;;;9.30;;
21352;SDS011;10834;52.268;6.770;2023-03-26T08:01:02;22.23;;;10.20;;
21352;SDS011;10834;52.268;6.770;2023-03-26T08:06:41;29.07;;;10.40;;
21352;SDS011;10834;52.268;6.770;2023-03-26T08:09:37;19.60;;;8.47;;
21352;SDS011;10834;52.268;6.770;2023-03-26T08:21:57;17.60;;;7.07;;
21352;SDS011;10834;52.268;6.770;2023-03-26T08:30:55;16.03;;;8.30;;
21352;SDS011;10834;52.268;6.770;2023-03-26T08:33:42;16.77;;;7.60;;
21352;SDS011;10834;52.268;6.770;2023-03-26T08:36:28;16.40;;;7.93;;
21352;SDS011;10834;52.268;6.770;2023-03-26T08:39:14;17.13;;;7.77;;
21352;SDS011;10834;52.268;6.770;2023-03-26T08:51:09;14.63;;;6.90;;
21352;SDS011;10834;52.268;6.770;2023-03-26T08:54:35;16.20;;;5.93;;
21352;SDS011;10834;52.268;6.770;2023-03-26T09:44:31;10.00;;;5.40;;
21352;SDS011;10834;52.268;6.770;2023-03-26T09:47:47;14.37;;;6.17;;
21352;SDS011;10834;52.268;6.770;2023-03-26T09:59:56;15.37;;;6.20;;
21352;SDS011;10834;52.268;6.770;2023-03-26T10:03:17;16.97;;;7.97;;
21352;SDS011;10834;52.268;6.770;2023-03-26T10:06:12;11.60;;;5.57;;
21352;SDS011;10834;52.268;6.770;2023-03-26T10:09:34;9.20;;;4.13;;
21352;SDS011;10834;52.268;6.770;2023-03-26T10:12:44;9.83;;;5.10;;
21352;SDS011;10834;52.268;6.770;2023-03-26T10:22:01;8.50;;;4.07;;
21352;SDS011;10834;52.268;6.770;2023-03-26T10:52:55;10.33;;;4.43;;
21352;SDS011;10834;52.268;6.770;2023-03-26T10:55:53;10.87;;;5.03;;
21352;SDS011;10834;52.268;6.770;2023-03-26T10:58:42;12.73;;;4.83;;
21352;SDS011;10834;52.268;6.770;2023-03-26T11:07:34;9.77;;;4.47;;
21352;SDS011;10834;52.268;6.770;2023-03-26T11:13:52;13.43;;;4.53;;
21352;SDS011;10834;52.268;6.770;2023-03-26T11:16:55;12.23;;;5.57;;
21352;SDS011;10834;52.268;6.770;2023-03-26T11:23:08;11.57;;;4.77;;
21352;SDS011;10834;52.268;6.770;2023-03-26T11:31:58;15.73;;;4.93;;
21352;SDS011;10834;52.268;6.770;2023-03-26T11:35:02;12.87;;;4.13;;
21352;SDS011;10834;52.268;6.770;2023-03-26T11:37:53;13.90;;;4.17;;
21352;SDS011;10834;52.268;6.770;2023-03-26T11:40:43;17.07;;;4.93;;
21352;SDS011;10834;52.268;6.770;2023-03-26T11:43:35;17.97;;;4.27;;
21352;SDS011;10834;52.268;6.770;2023-03-26T11:46:21;17.43;;;3.90;;
21352;SDS011;10834;52.268;6.770;2023-03-26T11:49:10;9.53;;;3.60;;
21352;SDS011;10834;52.268;6.770;2023-03-26T11:51:58;16.73;;;3.10;;
21352;SDS011;10834;52.268;6.770;2023-03-26T11:54:46;9.03;;;3.67;;
21352;SDS011;10834;52.268;6.770;2023-03-26T11:57:34;17.43;;;3.53;;
21352;SDS011;10834;52.268;6.770;2023-03-26T12:00:24;9.57;;;3.43;;
21352;SDS011;10834;52.268;6.770;2023-03-26T12:03:15;12.90;;;5.50;;
21352;SDS011;10834;52.268;6.770;2023-03-26T12:06:01;12.03;;;3.37;;
21352;SDS011;10834;52.268;6.770;2023-03-26T12:08:49;12.87;;;3.37;;
21352;SDS011;10834;52.268;6.770;2023-03-26T12:11:35;11.43;;;2.67;;
21352;SDS011;10834;52.268;6.770;2023-03-26T12:14:23;10.47;;;4.50;;
21352;SDS011;10834;52.268;6.770;2023-03-26T12:17:12;13.60;;;5.23;;
21352;SDS011;10834;52.268;6.770;2023-03-26T12:20:00;10.57;;;3.70;;
21352;SDS011;10834;52.268;6.770;2023-03-26T12:23:12;9.37;;;3.40;;
21352;SDS011;10834;52.268;6.770;2023-03-26T12:26:38;12.33;;;3.20;;
21352;SDS011;10834;52.268;6.770;2023-03-26T12:29:26;7.90;;;3.13;;
21352;SDS011;10834;52.268;6.770;2023-03-26T12:32:13;10.80;;;2.87;;
21352;SDS011;10834;52.268;6.770;2023-03-26T12:35:04;12.40;;;4.43;;
21352;SDS011;10834;52.268;6.770;2023-03-26T12:37:55;12.00;;;2.77;;
21352;SDS011;10834;52.268;6.770;2023-03-26T12:41:05;11.53;;;3.23;;
21352;SDS011;10834;52.268;6.770;2023-03-26T12:44:13;10.30;;;2.73;;
21352;SDS011;10834;52.268;6.770;2023-03-26T12:47:29;13.97;;;2.43;;
21352;SDS011;10834;52.268;6.770;2023-03-26T12:50:17;8.73;;;3.20;;
21352;SDS011;10834;52.268;6.770;2023-03-26T12:53:27;10.57;;;3.43;;
21352;SDS011;10834;52.268;6.770;2023-03-26T12:56:47;12.87;;;3.53;;
21352;SDS011;10834;52.268;6.770;2023-03-26T13:08:58;9.47;;;2.23;;
21352;SDS011;10834;52.268;6.770;2023-03-26T13:14:55;8.67;;;2.23;;
21352;SDS011;10834;52.268;6.770;2023-03-26T13:21:08;9.40;;;2.70;;
21352;SDS011;10834;52.268;6.770;2023-03-26T13:43:32;11.17;;;2.97;;
21352;SDS011;10834;52.268;6.770;2023-03-26T13:46:23;8.10;;;2.03;;
21352;SDS011;10834;52.268;6.770;2023-03-26T13:52:18;10.23;;;2.33;;
21352;SDS011;10834;52.268;6.770;2023-03-26T13:55:17;9.17;;;1.97;;
21352;SDS011;10834;52.268;6.770;2023-03-26T13:58:37;6.10;;;1.77;;
21352;SDS011;10834;52.268;6.770;2023-03-26T14:01:36;10.70;;;2.73;;
21352;SDS011;10834;52.268;6.770;2023-03-26T14:04:31;6.57;;;1.73;;
21352;SDS011;10834;52.268;6.770;2023-03-26T14:07:24;6.03;;;1.47;;
21352;SDS011;10834;52.268;6.770;2023-03-26T14:10:21;9.73;;;2.10;;
21352;SDS011;10834;52.268;6.770;2023-03-26T14:13:15;12.00;;;2.23;;
21352;SDS011;10834;52.268;6.770;2023-03-26T14:31:34;10.33;;;2.17;;
21352;SDS011;10834;52.268;6.770;2023-03-26T14:40:27;10.57;;;1.90;;
21352;SDS011;10834;52.268;6.770;2023-03-26T14:53:08;8.27;;;2.17;;
21352;SDS011;10834;52.268;6.770;2023-03-26T15:20:46;7.67;;;2.87;;
21352;SDS011;10834;52.268;6.770;2023-03-26T15:26:42;8.13;;;1.67;;
21352;SDS011;10834;52.268;6.770;2023-03-26T15:42:36;10.27;;;3.10;;
21352;SDS011;10834;52.268;6.770;2023-03-26T15:57:42;7.50;;;2.20;;
21352;SDS011;10834;52.268;6.770;2023-03-26T16:06:49;13.87;;;2.23;;
21352;SDS011;10834;52.268;6.770;2023-03-26T16:09:50;12.63;;;4.73;;
21352;SDS011;10834;52.268;6.770;2023-03-26T16:12:52;6.60;;;2.20;;
21352;SDS011;10834;52.268;6.770;2023-03-26T16:18:56;7.67;;;2.53;;
21352;SDS011;10834;52.268;6.770;2023-03-26T16:22:04;9.10;;;2.43;;
21352;SDS011;10834;52.268;6.770;2023-03-26T16:25:11;11.93;;;2.07;;
21352;SDS011;10834;52.268;6.770;2023-03-26T16:36:49;10.23;;;3.23;;
21352;SDS011;10834;52.268;6.770;2023-03-26T16:39:40;8.07;;;2.57;;
21352;SDS011;10834;52.268;6.770;2023-03-26T16:42:38;2.47;;;1.70;;
21352;SDS011;10834;52.268;6.770;2023-03-26T16:51:25;8.27;;;2.03;;
21352;SDS011;10834;52.268;6.770;2023-03-26T16:57:35;4.20;;;1.60;;
21352;SDS011;10834;52.268;6.770;2023-03-26T17:00:29;8.10;;;1.90;;
21352;SDS011;10834;52.268;6.770;2023-03-26T17:12:40;8.57;;;2.43;;
21352;SDS011;10834;52.268;6.770;2023-03-26T17:21:56;12.03;;;2.40;;
21352;SDS011;10834;52.268;6.770;2023-03-26T17:40:25;7.83;;;3.57;;
21352;SDS011;10834;52.268;6.770;2023-03-26T17:46:36;8.83;;;3.23;;
21352;SDS011;10834;52.268;6.770;2023-03-26T17:49:27;9.17;;;2.17;;
21352;SDS011;10834;52.268;6.770;2023-03-26T17:55:21;11.63;;;2.50;;
21352;SDS011;10834;52.268;6.770;2023-03-26T17:58:57;10.70;;;2.13;;
21352;SDS011;10834;52.268;6.770;2023-03-26T18:01:39;15.67;;;4.60;;
21352;SDS011;10834;52.268;6.770;2023-03-26T18:04:30;6.73;;;2.00;;
21352;SDS011;10834;52.268;6.770;2023-03-26T18:10:22;8.37;;;2.17;;
21352;SDS011;10834;52.268;6.770;2023-03-26T18:16:45;13.43;;;1.90;;
21352;SDS011;10834;52.268;6.770;2023-03-26T18:19:45;14.37;;;2.07;;
21352;SDS011;10834;52.268;6.770;2023-03-26T18:22:33;13.50;;;3.77;;
21352;SDS011;10834;52.268;6.770;2023-03-26T18:25:29;6.33;;;1.90;;
21352;SDS011;10834;52.268;6.770;2023-03-26T18:28:19;7.97;;;1.70;;
21352;SDS011;10834;52.268;6.770;2023-03-26T18:31:16;4.47;;;1.70;;
21352;SDS011;10834;52.268;6.770;2023-03-26T18:34:07;11.03;;;1.47;;
21352;SDS011;10834;52.268;6.770;2023-03-26T18:42:57;13.27;;;2.50;;
21352;SDS011;10834;52.268;6.770;2023-03-26T18:45:46;8.60;;;1.30;;
21352;SDS011;10834;52.268;6.770;2023-03-26T18:48:34;9.33;;;1.83;;
21352;SDS011;10834;52.268;6.770;2023-03-26T18:51:21;9.00;;;2.40;;
21352;SDS011;10834;52.268;6.770;2023-03-26T18:54:14;13.37;;;2.50;;
21352;SDS011;10834;52.268;6.770;2023-03-26T18:57:07;19.57;;;7.57;;
21352;SDS011;10834;52.268;6.770;2023-03-26T19:00:25;23.70;;;7.37;;
21352;SDS011;10834;52.268;6.770;2023-03-26T19:03:15;19.47;;;5.80;;
21352;SDS011;10834;52.268;6.770;2023-03-26T19:06:06;22.83;;;10.20;;
21352;SDS011;10834;52.268;6.770;2023-03-26T19:08:54;24.00;;;9.80;;
21352;SDS011;10834;52.268;6.770;2023-03-26T19:11:41;20.13;;;6.90;;
21352;SDS011;10834;52.268;6.770;2023-03-26T19:14:29;11.57;;;3.13;;
21352;SDS011;10834;52.268;6.770;2023-03-26T19:17:21;11.07;;;3.37;;
21352;SDS011;10834;52.268;6.770;2023-03-26T19:20:17;20.57;;;7.03;;
21352;SDS011;10834;52.268;6.770;2023-03-26T19:23:06;17.03;;;5.60;;
21352;SDS011;10834;52.268;6.770;2023-03-26T19:25:54;11.50;;;2.97;;
21352;SDS011;10834;52.268;6.770;2023-03-26T19:28:42;10.80;;;3.60;;
21352;SDS011;10834;52.268;6.770;2023-03-26T19:31:36;10.23;;;4.17;;
21352;SDS011;10834;52.268;6.770;2023-03-26T19:34:26;12.00;;;3.23;;
21352;SDS011;10834;52.268;6.770;2023-03-26T19:37:23;15.93;;;5.23;;
21352;SDS011;10834;52.268;6.770;2023-03-26T19:40:21;16.23;;;4.80;;
21352;SDS011;10834;52.268;6.770;2023-03-26T19:43:14;15.60;;;5.83;;
21352;SDS011;10834;52.268;6.770;2023-03-26T19:46:01;27.97;;;8.20;;
21352;SDS011;10834;52.268;6.770;2023-03-26T19:48:49;22.53;;;6.93;;
21352;SDS011;10834;52.268;6.770;2023-03-26T19:51:36;14.77;;;3.83;;
21352;SDS011;10834;52.268;6.770;2023-03-26T19:54:23;14.60;;;3.30;;
21352;SDS011;10834;52.268;6.770;2023-03-26T19:57:09;62.10;;;21.50;;
21352;SDS011;10834;52.268;6.770;2023-03-26T19:59:55;62.13;;;23.37;;
21352;SDS011;10834;52.268;6.770;2023-03-26T20:02:42;20.00;;;8.70;;
21352;SDS011;10834;52.268;6.770;2023-03-26T20:05:33;9.70;;;5.00;;
21352;SDS011;10834;52.268;6.770;2023-03-26T20:08:20;12.50;;;3.87;;
21352;SDS011;10834;52.268;6.770;2023-03-26T20:11:12;14.87;;;3.60;;
21352;SDS011;10834;52.268;6.770;2023-03-26T20:14:16;13.20;;;4.73;;
21352;SDS011;10834;52.268;6.770;2023-03-26T20:17:13;18.33;;;6.40;;
21352;SDS011;10834;52.268;6.770;2023-03-26T20:20:01;15.77;;;7.07;;
21352;SDS011;10834;52.268;6.770;2023-03-26T20:22:50;13.63;;;6.40;;
21352;SDS011;10834;52.268;6.770;2023-03-26T20:25:40;17.50;;;5.93;;
21352;SDS011;10834;52.268;6.770;2023-03-26T20:28:33;13.73;;;6.43;;
21352;SDS011;10834;52.268;6.770;2023-03-26T20:31:21;17.50;;;6.03;;
21352;SDS011;10834;52.268;6.770;2023-03-26T20:34:18;11.40;;;5.70;;
21352;SDS011;10834;52.268;6.770;2023-03-26T20:37:06;11.70;;;5.00;;
21352;SDS011;10834;52.268;6.770;2023-03-26T20:39:52;15.97;;;4.47;;
21352;SDS011;10834;52.268;6.770;2023-03-26T20:42:38;15.80;;;5.37;;
21352;SDS011;10834;52.268;6.770;2023-03-26T20:45:24;19.37;;;7.10;;
21352;SDS011;10834;52.268;6.770;2023-03-26T20:48:10;13.50;;;7.80;;
21352;SDS011;10834;52.268;6.770;2023-03-26T20:50:56;14.37;;;6.23;;
21352;SDS011;10834;52.268;6.770;2023-03-26T20:53:43;16.63;;;4.60;;
21352;SDS011;10834;52.268;6.770;2023-03-26T20:56:30;11.97;;;4.13;;
21352;SDS011;10834;52.268;6.770;2023-03-26T20:59:23;13.30;;;3.03;;
21352;SDS011;10834;52.268;6.770;2023-03-26T21:02:13;11.00;;;2.77;;
21352;SDS011;10834;52.268;6.770;2023-03-26T21:04:59;8.50;;;2.73;;
21352;SDS011;10834;52.268;6.770;2023-03-26T21:07:46;9.27;;;2.43;;
21352;SDS011;10834;52.268;6.770;2023-03-26T21:10:32;12.13;;;3.97;;
21352;SDS011;10834;52.268;6.770;2023-03-26T21:16:42;8.93;;;4.03;;
21352;SDS011;10834;52.268;6.770;2023-03-26T21:19:28;10.43;;;3.43;;
21352;SDS011;10834;52.268;6.770;2023-03-26T21:22:27;9.33;;;2.50;;
21352;SDS011;10834;52.268;6.770;2023-03-26T21:31:01;4.73;;;1.93;;
21352;SDS011;10834;52.268;6.770;2023-03-26T21:33:49;6.33;;;2.30;;
21352;SDS011;10834;52.268;6.770;2023-03-26T21:36:36;12.50;;;5.53;;
21352;SDS011;10834;52.268;6.770;2023-03-26T21:39:22;10.53;;;4.40;;
21352;SDS011;10834;52.268;6.770;2023-03-26T21:42:09;10.13;;;3.90;;
21352;SDS011;10834;52.268;6.770;2023-03-26T21:44:56;11.37;;;2.77;;
21352;SDS011;10834;52.268;6.770;2023-03-26T21:47:43;9.73;;;2.97;;
21352;SDS011;10834;52.268;6.770;2023-03-26T21:50:29;12.70;;;2.30;;
21352;SDS011;10834;52.268;6.770;2023-03-26T21:53:16;9.27;;;2.43;;
21352;SDS011;10834;52.268;6.770;2023-03-26T22:05:15;9.90;;;1.63;;
21352;SDS011;10834;52.268;6.770;2023-03-26T22:08:03;5.47;;;1.37;;
21352;SDS011;10834;52.268;6.770;2023-03-26T22:10:51;8.47;;;1.40;;
21352;SDS011;10834;52.268;6.770;2023-03-26T22:13:37;8.47;;;2.80;;
21352;SDS011;10834;52.268;6.770;2023-03-26T22:16:23;10.40;;;2.03;;
21352;SDS011;10834;52.268;6.770;2023-03-26T22:19:09;12.10;;;2.33;;
21352;SDS011;10834;52.268;6.770;2023-03-26T22:21:56;6.73;;;1.07;;
21352;SDS011;10834;52.268;6.770;2023-03-26T22:24:44;5.80;;;1.50;;
21352;SDS011;10834;52.268;6.770;2023-03-26T22:27:30;5.47;;;1.57;;
21352;SDS011;10834;52.268;6.770;2023-03-26T22:30:16;3.77;;;1.37;;
21352;SDS011;10834;52.268;6.770;2023-03-26T22:33:05;4.90;;;1.13;;
21352;SDS011;10834;52.268;6.770;2023-03-26T22:35:55;8.27;;;1.67;;
21352;SDS011;10834;52.268;6.770;2023-03-26T22:38:41;5.97;;;1.33;;
21352;SDS011;10834;52.268;6.770;2023-03-26T22:41:27;11.33;;;2.00;;
21352;SDS011;10834;52.268;6.770;2023-03-26T22:44:16;9.03;;;1.53;;
21352;SDS011;10834;52.268;6.770;2023-03-26T22:47:02;5.30;;;1.37;;
21352;SDS011;10834;52.268;6.770;2023-03-26T22:49:49;9.40;;;1.53;;
21352;SDS011;10834;52.268;6.770;2023-03-26T22:52:35;8.43;;;1.77;;
21352;SDS011;10834;52.268;6.770;2023-03-26T22:55:23;9.57;;;2.00;;
21352;SDS011;10834;52.268;6.770;2023-03-26T22:58:09;8.00;;;1.57;;
21352;SDS011;10834;52.268;6.770;2023-03-26T23:01:05;11.67;;;2.83;;
21352;SDS011;10834;52.268;6.770;2023-03-26T23:03:54;7.37;;;1.60;;
21352;SDS011;10834;52.268;6.770;2023-03-26T23:06:40;13.93;;;2.03;;
21352;SDS011;10834;52.268;6.770;2023-03-26T23:09:26;6.77;;;1.50;;
21352;SDS011;10834;52.268;6.770;2023-03-26T23:12:12;8.73;;;2.13;;